Time;durP1;ratioP1;P1;durP2;ratioP2;P2;SDS_P1;SDS_P2;PMS_P1;PMS_P2;Temp;Humidity;BMP_temperature;BMP_pressure;BME280_temperature;BME280_humidity;BME280_pressure;Samples;Min_cycle;Max_cycle;Signal;HPM_P1;HPM_P2
2023/10/25 00:01:58;;;;;;;;;;;;;;;;;;6084758;23;19948;-89
2023/10/25 00:04:24;;;;;;;;;;;;;;;;;;6088719;23;19917;-90
2023/10/25 00:06:50;;;;;;;;;;;;;;;;;;6086329;23;19927;-89
2023/10/25 00:09:15;;;;;;;;;;;;;;;;;;6065308;23;19996;-89
2023/10/25 00:11:41;;;;;;;;;;;;;;;;;;6086205;23;19995;-89
2023/10/25 00:14:08;;;;;;;;;;;;;;;;;;6089837;23;19921;-89
2023/10/25 00:16:34;;;;;;;;;;;;;;;;;;6089214;23;19917;-89
2023/10/25 00:19:00;;;;;;;;;;;;;;;;;;6085682;23;20306;-89
2023/10/25 00:21:26;;;;;;;;;;;;;;;;;;6065554;23;20030;-90
2023/10/25 00:23:52;;;;;;;;;;;;;;;;;;6087763;23;19928;-90
2023/10/25 00:26:18;;;;;;;;;;;;;;;;;;6062626;23;19995;-90
2023/10/25 00:28:43;;;;;;;;;;;;;;;;;;6062043;23;19921;-89
2023/10/25 00:31:09;;;;;;;;;;;;;;;;;;6064540;23;19917;-89
2023/10/25 00:33:35;;;;;;;;;;;;;;;;;;6059857;23;19920;-89
2023/10/25 00:36:01;;;;;;;;;;;;;;;;;;6085678;23;20334;-89
2023/10/25 00:38:27;;;;;;;;;;;;;;;;;;6062635;23;20330;-89
2023/10/25 00:40:53;;;;;;;;;;;;;;;;;;6085168;23;20265;-89
2023/10/25 00:43:20;;;;;;;;;;;;;;;;;;6088077;23;20254;-89
2023/10/25 00:45:46;;;;;;;;;;;;;;;;;;6084374;23;19928;-89
2023/10/25 00:48:12;;;;;;;;;;;;;;;;;;6088743;23;19920;-89
2023/10/25 00:50:38;;;;;;;;;;;;;;;;;;6087722;23;19921;-90
2023/10/25 00:53:04;;;;;;;;;;;;;;;;;;6061876;23;19921;-89
2023/10/25 00:55:30;;;;;;;;;;;;;;;;;;6088390;23;20369;-89
2023/10/25 00:57:55;;;;;;;;;;;;;;;;;;6061905;23;20004;-89
2023/10/25 01:00:22;;;;;;;;;;;;;;;;;;6112523;23;20334;-89
2023/10/25 01:02:48;;;;;;;;;;;;;;;;;;6082325;23;20339;-89
2023/10/25 01:05:15;;;;;;;;;;;;;;;;;;6111142;23;19928;-89
2023/10/25 01:07:41;;;;;;;;;;;;;;;;;;6085552;23;19923;-89
2023/10/25 01:10:07;;;;;;;;;;;;;;;;;;6112421;23;20003;-89
2023/10/25 01:12:33;;;;;;;;;;;;;;;;;;6114993;23;19921;-89
2023/10/25 01:14:58;;;;;;;;;;;;;;;;;;6106751;23;19974;-89
2023/10/25 01:17:24;;;;;;;;;;;;;;;;;;6111082;23;19983;-89
2023/10/25 01:19:50;;;;;;;;;;;;;;;;;;6082711;23;19928;-89
2023/10/25 01:22:16;;;;;;;;;;;;;;;;;;6111307;23;19984;-89
2023/10/25 01:24:43;;;;;;;;;;;;;;;;;;6108379;23;19925;-89
2023/10/25 01:27:09;;;;;;;;;;;;;;;;;;6110444;23;19925;-89
2023/10/25 01:29:35;;;;;;;;;;;;;;;;;;6086644;23;19921;-89
2023/10/25 01:32:01;;;;;;;;;;;;;;;;;;6084726;23;19920;-89
2023/10/25 01:34:27;;;;;;;;;;;;;;;;;;6087313;23;19948;-89
2023/10/25 01:36:52;;;;;;;;;;;;;;;;;;6109203;23;19932;-89
2023/10/25 01:39:18;;;;;;;;;;;;;;;;;;6112611;23;20254;-89
2023/10/25 01:41:44;;;;;;;;;;;;;;;;;;6086573;23;20253;-89
2023/10/25 01:44:10;;;;;;;;;;;;;;;;;;6114119;23;19960;-89
2023/10/25 01:46:36;;;;;;;;;;;;;;;;;;6087768;23;20044;-89
2023/10/25 01:49:02;;;;;;;;;;;;;;;;;;6085505;23;19925;-89
2023/10/25 01:51:28;;;;;;;;;;;;;;;;;;6087270;23;20290;-89
2023/10/25 01:53:54;;;;;;;;;;;;;;;;;;6084376;23;19925;-89
2023/10/25 01:56:20;;;;;;;;;;;;;;;;;;6087757;23;19925;-89
2023/10/25 01:58:46;;;;;;;;;;;;;;;;;;6085812;23;19925;-89
2023/10/25 02:01:12;;;;;;;;;;;;;;;;;;6087092;23;19925;-89
2023/10/25 02:03:38;;;;;;;;;;;;;;;;;;6113125;23;19924;-89
2023/10/25 02:06:04;;;;;;;;;;;;;;;;;;6085591;23;19921;-89
2023/10/25 02:08:30;;;;;;;;;;;;;;;;;;6087925;23;19921;-89
2023/10/25 02:10:56;;;;;;;;;;;;;;;;;;6085290;23;20337;-89
2023/10/25 02:13:22;;;;;;;;;;;;;;;;;;6088669;23;19932;-89
2023/10/25 02:15:48;;;;;;;;;;;;;;;;;;6085395;23;19920;-89
2023/10/25 02:18:14;;;;;;;;;;;;;;;;;;6086331;23;19920;-89
2023/10/25 02:20:40;;;;;;;;;;;;;;;;;;6110217;23;19927;-89
2023/10/25 02:23:06;;;;;;;;;;;;;;;;;;6089138;23;19924;-89
2023/10/25 02:25:32;;;;;;;;;;;;;;;;;;6087853;23;19928;-89
2023/10/25 02:27:58;;;;;;;;;;;;;;;;;;6082754;23;19927;-89
2023/10/25 02:30:24;;;;;;;;;;;;;;;;;;6109024;23;19921;-88
2023/10/25 02:32:50;;;;;;;;;;;;;;;;;;6085128;23;19920;-89
2023/10/25 02:35:18;;;;;;;;;;;;;;;;;;6086444;23;19963;-89
2023/10/25 02:37:44;;;;;;;;;;;;;;;;;;6080432;23;19975;-90
2023/10/25 02:40:09;;;;;;;;;;;;;;;;;;6085524;23;19921;-89
2023/10/25 02:42:36;;;;;;;;;;;;;;;;;;6089750;23;19932;-89
2023/10/25 02:45:02;;;;;;;;;;;;;;;;;;6085467;23;20365;-89
2023/10/25 02:47:27;;;;;;;;;;;;;;;;;;6087171;23;19921;-89
2023/10/25 02:49:53;;;;;;;;;;;;;;;;;;6098772;23;20349;-90
2023/10/25 02:52:19;;;;;;;;;;;;;;;;;;6100798;23;20310;-89
2023/10/25 02:54:45;;;;;;;;;;;;;;;;;;6113238;23;20310;-89
2023/10/25 02:57:11;;;;;;;;;;;;;;;;;;6112074;23;19925;-89
2023/10/25 02:59:37;;;;;;;;;;;;;;;;;;6089251;23;19991;-89
2023/10/25 03:02:04;;;;;;;;;;;;;;;;;;6062086;23;19927;-88
2023/10/25 03:04:30;;;;;;;;;;;;;;;;;;6085830;23;19943;-89
2023/10/25 03:06:56;;;;;;;;;;;;;;;;;;6062090;23;19920;-90
2023/10/25 03:09:21;;;;;;;;;;;;;;;;;;6087941;23;20303;-89
2023/10/25 03:11:47;;;;;;;;;;;;;;;;;;6060455;23;19921;-89
2023/10/25 03:14:13;;;;;;;;;;;;;;;;;;6086051;23;19927;-90
2023/10/25 03:16:39;;;;;;;;;;;;;;;;;;6089374;23;20287;-90
2023/10/25 03:19:05;;;;;;;;;;;;;;;;;;6063175;23;19956;-89
2023/10/25 03:21:31;;;;;;;;;;;;;;;;;;6089299;23;20266;-90
2023/10/25 03:23:57;;;;;;;;;;;;;;;;;;6085094;23;20628;-90
2023/10/25 03:26:23;;;;;;;;;;;;;;;;;;6088466;23;20306;-89
2023/10/25 03:28:49;;;;;;;;;;;;;;;;;;6084950;23;19921;-90
2023/10/25 03:31:15;;;;;;;;;;;;;;;;;;6087796;23;19921;-90
2023/10/25 03:33:41;;;;;;;;;;;;;;;;;;6083437;23;20031;-90
2023/10/25 03:36:07;;;;;;;;;;;;;;;;;;6087678;23;19927;-89
2023/10/25 03:38:34;;;;;;;;;;;;;;;;;;6086923;23;20295;-89
2023/10/25 03:41:00;;;;;;;;;;;;;;;;;;6111272;23;20287;-89
2023/10/25 03:43:26;;;;;;;;;;;;;;;;;;6090086;23;19925;-89
2023/10/25 03:45:53;;;;;;;;;;;;;;;;;;6087769;23;19925;-90
2023/10/25 03:48:19;;;;;;;;;;;;;;;;;;6092147;23;20351;-90
2023/10/25 03:50:45;;;;;;;;;;;;;;;;;;6086242;23;20334;-90
2023/10/25 03:53:11;;;;;;;;;;;;;;;;;;6090168;23;20371;-90
2023/10/25 03:55:37;;;;;;;;;;;;;;;;;;6114600;23;19928;-89
2023/10/25 03:58:03;;;;;;;;;;;;;;;;;;6086326;23;19925;-90
2023/10/25 04:00:29;;;;;;;;;;;;;;;;;;6089739;23;20391;-89
2023/10/25 04:02:55;;;;;;;;;;;;;;;;;;6087963;23;20035;-89
2023/10/25 04:05:21;;;;;;;;;;;;;;;;;;6089489;23;19953;-89
2023/10/25 04:07:47;;;;;;;;;;;;;;;;;;6088692;23;20346;-89
2023/10/25 04:10:13;;;;;;;;;;;;;;;;;;6088895;23;20007;-90
2023/10/25 04:12:40;;;;;;;;;;;;;;;;;;6089415;23;19975;-90
2023/10/25 04:15:06;;;;;;;;;;;;;;;;;;6088187;23;19995;-90
2023/10/25 04:17:32;;;;;;;;;;;;;;;;;;6065397;23;19921;-90
2023/10/25 04:19:58;;;;;;;;;;;;;;;;;;6061427;23;19927;-90
2023/10/25 04:22:24;;;;;;;;;;;;;;;;;;6088274;23;20036;-89
2023/10/25 04:24:50;;;;;;;;;;;;;;;;;;6088472;23;19972;-89
2023/10/25 04:27:16;;;;;;;;;;;;;;;;;;6089932;23;20338;-89
2023/10/25 04:29:43;;;;;;;;;;;;;;;;;;6086498;23;19964;-90
2023/10/25 04:32:09;;;;;;;;;;;;;;;;;;6064256;23;20306;-90
2023/10/25 04:34:35;;;;;;;;;;;;;;;;;;6090355;23;19928;-89
2023/10/25 04:37:01;;;;;;;;;;;;;;;;;;6086198;23;19921;-89
2023/10/25 04:39:27;;;;;;;;;;;;;;;;;;6086181;23;20294;-89
2023/10/25 04:41:53;;;;;;;;;;;;;;;;;;6084053;23;20022;-89
2023/10/25 04:44:19;;;;;;;;;;;;;;;;;;6088166;23;20258;-89
2023/10/25 04:46:45;;;;;;;;;;;;;;;;;;6085374;23;19952;-89
2023/10/25 04:49:11;;;;;;;;;;;;;;;;;;6064325;23;19921;-89
2023/10/25 04:51:37;;;;;;;;;;;;;;;;;;6066069;23;20326;-89
2023/10/25 04:54:03;;;;;;;;;;;;;;;;;;6085449;23;19978;-89
2023/10/25 04:56:29;;;;;;;;;;;;;;;;;;6087835;23;19929;-89
2023/10/25 04:58:55;;;;;;;;;;;;;;;;;;6081863;23;19963;-90
2023/10/25 05:01:21;;;;;;;;;;;;;;;;;;6088202;23;19927;-89
2023/10/25 05:03:47;;;;;;;;;;;;;;;;;;6080123;23;19925;-89
2023/10/25 05:06:12;;;;;;;;;;;;;;;;;;6062237;23;19939;-89
2023/10/25 05:08:38;;;;;;;;;;;;;;;;;;6063633;23;19920;-89
2023/10/25 05:11:04;;;;;;;;;;;;;;;;;;6084831;23;19956;-96
2023/10/25 05:13:30;;;;;;;;;;;;;;;;;;6060804;23;19920;-89
2023/10/25 05:15:56;;;;;;;;;;;;;;;;;;6081808;23;20335;-89
2023/10/25 05:18:22;;;;;;;;;;;;;;;;;;6088297;23;20258;-89
2023/10/25 05:20:48;;;;;;;;;;;;;;;;;;6086170;23;20445;-89
2023/10/25 05:23:14;;;;;;;;;;;;;;;;;;6090371;23;20212;-89
2023/10/25 05:25:40;;;;;;;;;;;;;;;;;;6064864;23;19928;-90
2023/10/25 05:28:06;;;;;;;;;;;;;;;;;;6090788;23;20328;-89
2023/10/25 05:30:32;;;;;;;;;;;;;;;;;;6089882;23;19921;-89
2023/10/25 05:32:58;;;;;;;;;;;;;;;;;;6086770;23;20246;-89
2023/10/25 05:35:24;;;;;;;;;;;;;;;;;;6088938;23;20231;-89
2023/10/25 05:37:50;;;;;;;;;;;;;;;;;;6086927;23;20326;-89
2023/10/25 05:40:16;;;;;;;;;;;;;;;;;;6090379;23;19921;-89
2023/10/25 05:42:42;;;;;;;;;;;;;;;;;;6087760;23;19958;-89
2023/10/25 05:45:10;;;;;;;;;;;;;;;;;;6089966;23;19920;-89
2023/10/25 05:47:39;;;;;;;;;;;;;;;;;;6091324;23;19921;-89
2023/10/25 05:50:05;;;;;;;;;;;;;;;;;;6066057;23;19953;-89
2023/10/25 05:52:31;;;;;;;;;;;;;;;;;;6066184;23;20413;-89
2023/10/25 05:54:57;;;;;;;;;;;;;;;;;;6088438;23;19921;-89
2023/10/25 05:57:23;;;;;;;;;;;;;;;;;;6089902;23;19995;-89
2023/10/25 05:59:49;;;;;;;;;;;;;;;;;;6087886;23;19928;-89
2023/10/25 06:02:17;;;;;;;;;;;;;;;;;;6089763;23;19920;-89
2023/10/25 06:04:43;;;;;;;;;;;;;;;;;;6087242;23;19971;-89
2023/10/25 06:07:09;;;;;;;;;;;;;;;;;;6090999;23;20265;-89
2023/10/25 06:09:35;;;;;;;;;;;;;;;;;;6089465;23;19996;-89
2023/10/25 06:12:02;;;;;;;;;;;;;;;;;;6087965;23;20368;-89
2023/10/25 06:14:29;;;;;;;;;;;;;;;;;;6066039;23;19928;-89
2023/10/25 06:16:55;;;;;;;;;;;;;;;;;;6086117;23;20254;-89
2023/10/25 06:19:21;;;;;;;;;;;;;;;;;;6086045;23;19927;-89
2023/10/25 06:21:47;;;;;;;;;;;;;;;;;;6087824;23;20368;-89
2023/10/25 06:24:13;;;;;;;;;;;;;;;;;;6088686;23;20000;-89
2023/10/25 06:26:41;;;;;;;;;;;;;;;;;;6088802;23;20320;-89
2023/10/25 06:29:07;;;;;;;;;;;;;;;;;;6112850;23;20337;-89
2023/10/25 06:31:33;;;;;;;;;;;;;;;;;;6089763;23;19955;-89
2023/10/25 06:33:59;;;;;;;;;;;;;;;;;;6087713;23;19928;-89
2023/10/25 06:36:25;;;;;;;;;;;;;;;;;;6091259;23;20345;-88
2023/10/25 06:38:51;;;;;;;;;;;;;;;;;;6087516;23;19924;-89
2023/10/25 06:41:17;;;;;;;;;;;;;;;;;;6091116;23;19921;-88
2023/10/25 06:43:43;;;;;;;;;;;;;;;;;;6089695;23;19980;-89
2023/10/25 06:46:09;;;;;;;;;;;;;;;;;;6089858;23;19921;-89
2023/10/25 06:48:35;;;;;;;;;;;;;;;;;;6091669;23;19925;-88
2023/10/25 06:51:01;;;;;;;;;;;;;;;;;;6088941;23;20392;-89
2023/10/25 06:53:27;;;;;;;;;;;;;;;;;;6091314;23;19917;-89
2023/10/25 06:55:53;;;;;;;;;;;;;;;;;;6089032;23;19991;-89
2023/10/25 06:58:19;;;;;;;;;;;;;;;;;;6092658;23;19925;-89
2023/10/25 07:00:45;;;;;;;;;;;;;;;;;;6087782;23;19921;-89
2023/10/25 07:03:11;;;;;;;;;;;;;;;;;;6091571;23;19932;-89
2023/10/25 07:05:37;;;;;;;;;;;;;;;;;;6089752;23;19995;-89
2023/10/25 07:08:03;;;;;;;;;;;;;;;;;;6088447;23;19949;-89
2023/10/25 07:10:29;;;;;;;;;;;;;;;;;;6091903;23;20326;-89
2023/10/25 07:12:55;;;;;;;;;;;;;;;;;;6090089;23;20425;-88
2023/10/25 07:15:23;;;;;;;;;;;;;;;;;;6091031;23;19924;-89
2023/10/25 07:17:49;;;;;;;;;;;;;;;;;;6089019;23;19917;-89
2023/10/25 07:20:15;;;;;;;;;;;;;;;;;;6091777;23;19921;-89
2023/10/25 07:22:42;;;;;;;;;;;;;;;;;;6088300;23;19936;-89
2023/10/25 07:25:08;;;;;;;;;;;;;;;;;;6091157;23;20322;-89
2023/10/25 07:27:33;;;;;;;;;;;;;;;;;;6090736;23;19921;-89
2023/10/25 07:29:59;;;;;;;;;;;;;;;;;;6088683;23;20299;-89
2023/10/25 07:32:26;;;;;;;;;;;;;;;;;;6091639;23;20228;-89
2023/10/25 07:34:52;;;;;;;;;;;;;;;;;;6088031;23;19932;-89
2023/10/25 07:37:18;;;;;;;;;;;;;;;;;;6090132;23;19921;-89
2023/10/25 07:39:43;;;;;;;;;;;;;;;;;;6113916;23;19983;-89
2023/10/25 07:42:09;;;;;;;;;;;;;;;;;;6089746;23;19925;-89
2023/10/25 07:44:44;;;;;;;;;;;;;;;;;;6086186;23;19925;-89
2023/10/25 07:47:10;;;;;;;;;;;;;;;;;;6085057;23;19917;-89
2023/10/25 07:49:36;;;;;;;;;;;;;;;;;;6064090;23;20274;-90
2023/10/25 07:52:02;;;;;;;;;;;;;;;;;;6059605;23;20270;-89
2023/10/25 07:54:29;;;;;;;;;;;;;;;;;;6060366;23;19917;-89
2023/10/25 07:56:55;;;;;;;;;;;;;;;;;;6084336;23;20361;-89
2023/10/25 07:59:21;;;;;;;;;;;;;;;;;;6062108;23;19924;-88
2023/10/25 08:01:49;;;;;;;;;;;;;;;;;;6108117;23;19997;-88
2023/10/25 08:04:19;;;;;;;;;;;;;;;;;;6088565;23;20397;-89
2023/10/25 08:06:45;;;;;;;;;;;;;;;;;;6084478;23;20322;-88
2023/10/25 08:09:11;;;;;;;;;;;;;;;;;;6111184;23;19980;-89
2023/10/25 08:11:37;;;;;;;;;;;;;;;;;;6085851;23;20342;-89
2023/10/25 08:14:03;;;;;;;;;;;;;;;;;;6085908;23;19953;-89
2023/10/25 08:16:29;;;;;;;;;;;;;;;;;;6086879;23;19920;-89
2023/10/25 08:18:55;;;;;;;;;;;;;;;;;;6109939;23;20362;-89
2023/10/25 08:21:21;;;;;;;;;;;;;;;;;;6085734;23;20327;-89
2023/10/25 08:23:56;;;;;;;;;;;;;;;;;;6090437;23;19941;-89
2023/10/25 08:41:17;;;;;;;;;;;;;;;;;;5999199;23;19922;-89
2023/10/25 08:44:11;;;;;;;;;;;;;;;;;;;;;
2023/10/25 08:46:55;;;;;;;;;;;;;;;;;;6103838;23;19928;-90
2023/10/25 08:49:53;;;;;;;;;;;;;;;;;;6115732;23;19925;-90
2023/10/25 08:52:48;;;;;;;;;;;;;;;;;;6110586;23;19920;-90
2023/10/25 08:55:19;;;;;;;;;;;;;;;;;;6104543;23;20027;-90
2023/10/25 08:58:06;;;;;;;;;;;;;;;;;;;;;
2023/10/25 09:00:45;;;;;;;;;;;;;;;;;;6112946;23;19917;-90
2023/10/25 09:06:22;;;;;;;;;;;;;;;;;;5997724;23;20405;-90
2023/10/25 09:12:01;;;;;;;;;;;;;;;;;;6031386;23;20300;-89
2023/10/25 09:14:32;;;;;;;;;;;;;;;;;;5976176;23;19973;-89
2023/10/25 09:17:37;;;;;;;;;;;;;;;;;;6018073;23;19921;-89
2023/10/25 09:20:23;;;;;;;;;;;;;;;;;;6002430;23;20008;-89
2023/10/25 09:23:16;;;;;;;;;;;;;;;;;;5972940;23;19930;-88
2023/10/25 09:25:54;;;;;;;;;;;;;;;;;;6000119;23;19937;-89
2023/10/25 09:28:45;;;;;;;;;;;;;;;;;;5998820;23;19922;-89
2023/10/25 09:31:52;;;;;;;;;;;;;;;;;;6000303;23;19922;-89
2023/10/25 09:37:25;;;;;;;;;;;;;;;;;;6079095;23;19928;-89
2023/10/25 09:39:57;;;;;;;;;;;;;;;;;;6068840;23;19929;-89
2023/10/25 09:43:00;;;;;;;;;;;;;;;;;;6111426;23;19973;-90
2023/10/25 09:45:48;;;;;;;;;;;;;;;;;;6113508;23;19917;-89
2023/10/25 09:51:27;;;;;;;;;;;;;;;;;;6122717;23;19925;-90
2023/10/25 09:54:17;;;;;;;;;;;;;;;;;;6085381;23;20570;-90
2023/10/25 10:00:05;;;;;;;;;;;;;;;;;;6074149;23;19980;-90
2023/10/25 10:02:46;;;;;;;;;;;;;;;;;;6064977;23;19932;-90
2023/10/25 10:11:37;;;;;;;;;;;;;;;;;;6049269;23;20001;-90
2023/10/25 11:16:45;;;;;;;;;;;;;;;;;;6220594;23;19919;-89
2023/10/25 11:22:36;;;;;;;;;;;;;;;;;;6138096;23;20407;-90
2023/10/25 11:25:21;;;;;;;;;;;;;;;;;;;;;
2023/10/25 11:27:59;;;;;;;;;;;;;;;;;;6200216;23;19920;-89
2023/10/25 11:33:49;;;;;;;;;;;;;;;;;;6172068;23;19966;-89
2023/10/25 11:42:05;;;;;;;;;;;;;;;;;;;;;
2023/10/25 11:47:38;;;;;;;;;;;;;;;;;;;;;
2023/10/25 11:50:17;;;;;;;;;;;;;;;;;;6243740;23;20289;-90
2023/10/25 11:55:57;;;;;;;;;;;;;;;;;;;;;
2023/10/25 11:58:28;;;;;;;;;;;;;;;;;;6206202;23;20329;-89
2023/10/25 12:00:57;;;;;;;;;;;;;;;;;;6177302;23;19919;-89
2023/10/25 12:03:23;;;;;;;;;;;;;;;;;;6181050;23;19963;-89
2023/10/25 12:06:11;;;;;;;;;;;;;;;;;;6173894;23;19928;-89
2023/10/25 12:11:25;;;;;;;;;;;;;;;;;;6198265;22;19947;-89
2023/10/25 12:14:08;;;;;;;;;;;;;;;;;;6149820;23;19920;-89
2023/10/25 12:16:58;;;;;;;;;;;;;;;;;;6175901;23;20361;-88
2023/10/25 12:19:52;;;;;;;;;;;;;;;;;;;;;
2023/10/25 12:22:31;;;;;;;;;;;;;;;;;;6172093;23;19917;-89
2023/10/25 12:25:03;;;;;;;;;;;;;;;;;;6145555;23;20573;-88
2023/10/25 12:33:50;;;;;;;;;;;;;;;;;;6197104;23;19946;-91
2023/10/25 12:36:40;;;;;;;;;;;;;;;;;;6174332;23;19942;-91
2023/10/25 12:39:02;;;;;;;;;;;;;;;;;;6170885;23;19927;-91
2023/10/25 12:41:38;;;;;;;;;;;;;;;;;;6171559;23;19994;-91
2023/10/25 12:44:08;;;;;;;;;;;;;;;;;;6172930;23;20031;-91
2023/10/25 12:46:36;;;;;;;;;;;;;;;;;;6202512;23;19981;-91
2023/10/25 12:49:05;;;;;;;;;;;;;;;;;;6148097;23;19924;-91
2023/10/25 12:51:36;;;;;;;;;;;;;;;;;;6174578;23;19923;-90
2023/10/25 12:54:02;;;;;;;;;;;;;;;;;;6149009;23;20393;-91
2023/10/25 12:56:29;;;;;;;;;;;;;;;;;;6175936;23;19951;-91
2023/10/25 12:58:55;;;;;;;;;;;;;;;;;;6171711;23;20362;-91
2023/10/25 13:01:24;;;;;;;;;;;;;;;;;;6148262;23;19986;-91
2023/10/25 13:03:50;;;;;;;;;;;;;;;;;;6173292;23;19924;-91
2023/10/25 13:06:16;;;;;;;;;;;;;;;;;;6174757;23;19978;-90
2023/10/25 13:08:42;;;;;;;;;;;;;;;;;;6172163;23;19927;-91
2023/10/25 13:11:08;;;;;;;;;;;;;;;;;;6149660;23;19930;-91
2023/10/25 13:13:37;;;;;;;;;;;;;;;;;;6173768;23;19958;-91
2023/10/25 13:16:05;;;;;;;;;;;;;;;;;;6172436;23;19920;-91
2023/10/25 13:18:31;;;;;;;;;;;;;;;;;;6148845;23;19990;-92
2023/10/25 13:21:00;;;;;;;;;;;;;;;;;;6148797;23;19920;-91
2023/10/25 13:23:29;;;;;;;;;;;;;;;;;;6149193;23;19924;-91
2023/10/25 13:25:55;;;;;;;;;;;;;;;;;;6170816;23;19920;-91
2023/10/25 13:28:24;;;;;;;;;;;;;;;;;;6175385;23;19923;-92
2023/10/25 13:30:53;;;;;;;;;;;;;;;;;;6172231;23;20386;-92
2023/10/25 13:33:19;;;;;;;;;;;;;;;;;;6148010;23;19926;-91
2023/10/25 13:35:50;;;;;;;;;;;;;;;;;;6148994;23;19963;-91
2023/10/25 13:38:16;;;;;;;;;;;;;;;;;;6150572;23;19927;-92
2023/10/25 13:40:46;;;;;;;;;;;;;;;;;;6149152;23;19919;-92
2023/10/25 13:43:13;;;;;;;;;;;;;;;;;;6151522;23;19924;-92
2023/10/25 13:45:44;;;;;;;;;;;;;;;;;;6150357;23;19920;-92
2023/10/25 13:48:10;;;;;;;;;;;;;;;;;;6190559;23;20245;-91
2023/10/25 13:50:36;;;;;;;;;;;;;;;;;;6159263;23;20322;-91
2023/10/25 13:53:02;;;;;;;;;;;;;;;;;;6145775;23;19920;-91
2023/10/25 13:55:28;;;;;;;;;;;;;;;;;;6149076;23;19951;-92
2023/10/25 13:57:57;;;;;;;;;;;;;;;;;;6172097;23;19923;-92
2023/10/25 14:00:26;;;;;;;;;;;;;;;;;;6148615;23;20447;-91
2023/10/25 14:02:52;;;;;;;;;;;;;;;;;;6147443;23;19928;-91
2023/10/25 14:05:18;;;;;;;;;;;;;;;;;;6174673;23;20000;-91
2023/10/25 14:11:24;;;;;;;;;;;;;;;;;;6183506;23;20168;-91
2023/10/25 14:19:53;;;;;;;;;;;;;;;;;;6097841;23;19921;-91
2023/10/25 14:22:53;;;;;;;;;;;;;;;;;;6146903;23;19960;-91
2023/10/25 14:28:42;;;;;;;;;;;;;;;;;;;;;
2023/10/25 14:34:28;;;;;;;;;;;;;;;;;;6173401;23;20321;-92
2023/10/25 14:42:56;;;;;;;;;;;;;;;;;;6053434;23;20420;-92
2023/10/25 14:45:24;;;;;;;;;;;;;;;;;;6032117;23;19921;-91
2023/10/25 14:54:51;;;;;;;;;;;;;;;;;;6071755;23;20223;-91
2023/10/25 14:57:42;;;;;;;;;;;;;;;;;;;;;
2023/10/25 15:03:20;;;;;;;;;;;;;;;;;;6050164;23;20004;-92
2023/10/25 15:05:48;;;;;;;;;;;;;;;;;;6028239;23;19928;-91
2023/10/25 15:08:48;;;;;;;;;;;;;;;;;;;;;
2023/10/25 15:12:44;;;;;;;;;;;;;;;;;;;;;
2023/10/25 15:18:12;;;;;;;;;;;;;;;;;;6103020;23;19948;-91
2023/10/25 15:21:13;;;;;;;;;;;;;;;;;;;;;
2023/10/25 15:30:09;;;;;;;;;;;;;;;;;;;;;
2023/10/25 15:35:59;;;;;;;;;;;;;;;;;;6084332;23;20351;-92
2023/10/25 15:38:37;;;;;;;;;;;;;;;;;;;;;
2023/10/25 15:41:23;;;;;;;;;;;;;;;;;;6079530;23;19996;-92
2023/10/25 15:44:05;;;;;;;;;;;;;;;;;;;;;
2023/10/25 15:47:11;;;;;;;;;;;;;;;;;;6103684;23;20338;-91
2023/10/25 16:01:40;;;;;;;;;;;;;;;;;;;;;
2023/10/25 16:04:19;;;;;;;;;;;;;;;;;;6109477;23;19955;-91
2023/10/25 16:07:04;;;;;;;;;;;;;;;;;;6099345;23;19936;-90
2023/10/25 16:12:45;;;;;;;;;;;;;;;;;;6165786;23;19970;-92
2023/10/25 16:19:01;;;;;;;;;;;;;;;;;;;;;
2023/10/25 16:21:53;;;;;;;;;;;;;;;;;;;;;
2023/10/25 16:27:27;;;;;;;;;;;;;;;;;;6076639;23;20342;-91
2023/10/25 16:30:45;;;;;;;;;;;;;;;;;;;;;
2023/10/25 16:33:14;;;;;;;;;;;;;;;;;;6073756;23;19947;-87
2023/10/25 16:42:23;;;;;;;;;;;;;;;;;;;;;
2023/10/25 16:45:17;;;;;;;;;;;;;;;;;;6002322;23;19990;-87
2023/10/25 16:48:05;;;;;;;;;;;;;;;;;;6030273;23;19956;-88
2023/10/25 16:56:23;;;;;;;;;;;;;;;;;;6163600;23;19928;-88
2023/10/25 16:59:23;;;;;;;;;;;;;;;;;;6145296;23;19943;-89
2023/10/25 17:01:48;;;;;;;;;;;;;;;;;;6140854;23;19917;-87
2023/10/25 17:04:13;;;;;;;;;;;;;;;;;;6119931;23;19934;-88
2023/10/25 17:06:50;;;;;;;;;;;;;;;;;;6145675;23;20633;-87
2023/10/25 17:09:34;;;;;;;;;;;;;;;;;;6121561;23;19955;-88
2023/10/25 17:15:01;;;;;;;;;;;;;;;;;;6179095;23;19956;-89
2023/10/25 17:23:20;;;;;;;;;;;;;;;;;;6113564;23;19925;-87
2023/10/25 17:25:54;;;;;;;;;;;;;;;;;;6091467;23;20054;-88
2023/10/25 17:28:34;;;;;;;;;;;;;;;;;;;;;
2023/10/25 17:31:29;;;;;;;;;;;;;;;;;;6128296;23;19952;-87
2023/10/25 17:34:07;;;;;;;;;;;;;;;;;;6091165;23;19920;-87
2023/10/25 17:36:43;;;;;;;;;;;;;;;;;;6114884;23;20726;-86
2023/10/25 17:42:14;;;;;;;;;;;;;;;;;;6138023;23;19921;-88
2023/10/25 17:45:03;;;;;;;;;;;;;;;;;;6111685;23;19939;-87
2023/10/25 17:47:31;;;;;;;;;;;;;;;;;;6078035;23;20294;-88
2023/10/25 17:55:58;;;;;;;;;;;;;;;;;;6132951;23;19931;-88
2023/10/25 17:58:27;;;;;;;;;;;;;;;;;;6136252;23;19920;-88
2023/10/25 18:01:02;;;;;;;;;;;;;;;;;;6114448;23;19982;-88
2023/10/25 18:03:29;;;;;;;;;;;;;;;;;;6141918;23;19931;-88
2023/10/25 18:06:04;;;;;;;;;;;;;;;;;;6120058;23;20858;-89
2023/10/25 18:38:40;;;;;;;;;;;;;;;;;;6177816;23;20380;-86
2023/10/25 18:44:12;;;;;;;;;;;;;;;;;;6174359;23;20429;-87
2023/10/25 18:46:47;;;;;;;;;;;;;;;;;;6150066;23;20010;-87
2023/10/25 18:49:31;;;;;;;;;;;;;;;;;;6154066;23;20570;-88
2023/10/25 18:52:24;;;;;;;;;;;;;;;;;;6175944;23;20346;-88
2023/10/25 18:55:06;;;;;;;;;;;;;;;;;;6213402;23;20456;-88
2023/10/25 18:57:57;;;;;;;;;;;;;;;;;;6201360;23;19970;-88
2023/10/25 19:00:33;;;;;;;;;;;;;;;;;;;;;
2023/10/25 19:03:28;;;;;;;;;;;;;;;;;;6203363;23;20419;-88
2023/10/25 19:06:05;;;;;;;;;;;;;;;;;;6112523;23;20333;-88
2023/10/25 19:08:48;;;;;;;;;;;;;;;;;;6139178;23;19921;-88
2023/10/25 19:11:44;;;;;;;;;;;;;;;;;;6035119;23;19926;-88
2023/10/25 19:14:30;;;;;;;;;;;;;;;;;;6007513;23;20058;-88
2023/10/25 19:17:11;;;;;;;;;;;;;;;;;;6083547;23;19956;-88
2023/10/25 19:19:43;;;;;;;;;;;;;;;;;;6092704;23;20467;-88
2023/10/25 20:00:02;;;;;;;;;;;;;;;;;;;;;
2023/10/25 20:19:57;;;;;;;;;;;;;;;;;;6195704;22;19928;-88
2023/10/25 20:25:36;;;;;;;;;;;;;;;;;;6166686;23;20351;-88
2023/10/25 20:28:19;;;;;;;;;;;;;;;;;;;;;
2023/10/25 20:31:01;;;;;;;;;;;;;;;;;;;;;
2023/10/25 20:42:02;;;;;;;;;;;;;;;;;;;;;
2023/10/25 21:00:24;;;;;;;;;;;;;;;;;;5980117;23;19921;-89
2023/10/25 21:03:21;;;;;;;;;;;;;;;;;;;;;
2023/10/25 21:09:25;;;;;;;;;;;;;;;;;;5961127;24;19961;-88
2023/10/25 21:21:24;;;;;;;;;;;;;;;;;;5988272;23;19957;-88
2023/10/25 21:36:15;;;;;;;;;;;;;;;;;;;;;
2023/10/25 21:38:53;;;;;;;;;;;;;;;;;;6027078;23;19918;-88
2023/10/25 21:41:50;;;;;;;;;;;;;;;;;;6028433;23;19925;-87
2023/10/25 21:47:32;;;;;;;;;;;;;;;;;;6033442;23;20402;-88
2023/10/25 21:50:17;;;;;;;;;;;;;;;;;;;;;
2023/10/25 21:53:16;;;;;;;;;;;;;;;;;;6092325;23;20330;-88
2023/10/25 21:56:10;;;;;;;;;;;;;;;;;;;;;
2023/10/25 22:01:44;;;;;;;;;;;;;;;;;;6108620;23;20339;-88
2023/10/25 22:07:15;;;;;;;;;;;;;;;;;;6073257;23;19968;-87
2023/10/25 22:09:49;;;;;;;;;;;;;;;;;;6053493;23;20275;-88
2023/10/25 22:12:30;;;;;;;;;;;;;;;;;;6063921;23;19992;-87
2023/10/25 22:15:34;;;;;;;;;;;;;;;;;;6084195;23;19917;-88
2023/10/25 22:18:13;;;;;;;;;;;;;;;;;;;;;
2023/10/25 22:20:50;;;;;;;;;;;;;;;;;;6028747;23;19918;-88
2023/10/25 22:26:38;;;;;;;;;;;;;;;;;;6022276;23;19922;-88
2023/10/25 22:29:12;;;;;;;;;;;;;;;;;;6006950;23;19932;-88
2023/10/25 22:31:47;;;;;;;;;;;;;;;;;;6037345;23;19992;-88
2023/10/25 22:34:28;;;;;;;;;;;;;;;;;;;;;
2023/10/25 22:36:57;;;;;;;;;;;;;;;;;;6086093;23;19924;-87
2023/10/25 22:39:32;;;;;;;;;;;;;;;;;;6062495;23;19928;-87
2023/10/25 22:48:12;;;;;;;;;;;;;;;;;;6185505;23;19959;-87
2023/10/25 22:54:12;;;;;;;;;;;;;;;;;;;;;
2023/10/25 22:59:40;;;;;;;;;;;;;;;;;;6138384;23;19920;-90
2023/10/25 23:02:06;;;;;;;;;;;;;;;;;;6149722;23;19931;-90
2023/10/25 23:04:32;;;;;;;;;;;;;;;;;;6147218;23;19924;-90
2023/10/25 23:06:58;;;;;;;;;;;;;;;;;;6120292;23;19947;-90
2023/10/25 23:09:24;;;;;;;;;;;;;;;;;;6123158;23;20337;-90
2023/10/25 23:11:50;;;;;;;;;;;;;;;;;;6122435;23;20337;-90
2023/10/25 23:14:19;;;;;;;;;;;;;;;;;;6121766;23;19916;-90
2023/10/25 23:16:45;;;;;;;;;;;;;;;;;;6147882;23;19995;-90
2023/10/25 23:19:11;;;;;;;;;;;;;;;;;;6149752;23;19921;-90
2023/10/25 23:21:37;;;;;;;;;;;;;;;;;;6149838;23;19916;-90
2023/10/25 23:24:03;;;;;;;;;;;;;;;;;;6145916;23;19924;-90
2023/10/25 23:26:29;;;;;;;;;;;;;;;;;;6150147;23;19920;-90
2023/10/25 23:28:55;;;;;;;;;;;;;;;;;;6122939;23;19999;-90
2023/10/25 23:31:21;;;;;;;;;;;;;;;;;;6125405;23;20002;-90
2023/10/25 23:33:47;;;;;;;;;;;;;;;;;;6145559;23;19920;-90
2023/10/25 23:36:13;;;;;;;;;;;;;;;;;;6150593;23;19975;-90
2023/10/25 23:38:39;;;;;;;;;;;;;;;;;;6126369;23;19986;-90
2023/10/25 23:41:05;;;;;;;;;;;;;;;;;;6123539;23;19974;-90
2023/10/25 23:43:31;;;;;;;;;;;;;;;;;;6123833;23;19931;-90
2023/10/25 23:45:57;;;;;;;;;;;;;;;;;;6125286;23;19916;-90
2023/10/25 23:48:23;;;;;;;;;;;;;;;;;;6126076;23;20337;-90
2023/10/25 23:50:49;;;;;;;;;;;;;;;;;;6148721;23;19927;-90
2023/10/25 23:53:15;;;;;;;;;;;;;;;;;;6176345;23;19927;-90
2023/10/25 23:55:41;;;;;;;;;;;;;;;;;;6146963;23;19920;-90
2023/10/25 23:58:07;;;;;;;;;;;;;;;;;;6121631;23;19928;-91
